Latest Weather Observations for Moorabbin Airport

IDV60901

Issued at 4:41 pm EST Thursday 29 September 2016 (issued every 10 minutes, with the page automatically refreshed every 10 minutes)

About weather observations | Map of Melbourne area stations | Latest observations for Melbourne area | Other Formats
Station Details ID: 086077 Name: MOORABBIN AIRPORT Lat: -37.98 Lon: 145.10 Height: 12.1 m
Data from the previous 72 hours. | See also: Recent months at Moorabbin Airport
Date/Time
EST
Temp
°C
App
Temp
°C
Dew
Point
°C
Rel
Hum
%
Delta-T
°C
Wind Press
QNH
hPa
Press
MSL
hPa
Rain since
9am
mm
Dir  Spd
km/h
Gust
km/h
Spd
kts
Gust
kts
29/04:30pm 13.5 7.6 4.1 53 4.3 NNW 24 41 13 22 988.8 988.8 0.2
29/04:00pm 15.9 8.7 3.0 42 5.9 N 30 39 16 21 987.9 987.9 0.0
29/03:30pm 16.0 8.9 3.4 43 5.8 N 30 41 16 22 988.0 988.0 0.0
29/03:00pm 15.7 7.7 1.8 39 6.2 NNW 33 50 18 27 988.0 988.0 0.0
29/02:55pm 15.8 8.0 1.5 38 6.3 NNW 32 50 17 27 987.9 987.9 0.0
29/02:30pm 15.6 7.8 2.7 42 5.8 NNW 33 46 18 25 988.1 988.1 0.0
29/02:18pm 16.0 8.4 2.8 41 6.0 NNW 32 50 17 27 988.3 988.3 0.0
29/02:00pm 16.1 9.1 3.9 44 5.7 NNW 30 39 16 21 988.4 988.4 0.0
29/01:30pm 15.5 8.0 3.3 44 5.6 N 32 50 17 27 988.7 988.7 0.0
29/01:17pm 16.3 9.4 4.4 45 5.6 N 30 50 16 27 988.9 988.9 0.0
29/01:00pm 16.5 9.3 4.9 46 5.6 NNW 32 41 17 22 989.1 989.1 0.0
29/12:35pm 15.6 8.6 4.3 47 5.3 NNW 30 48 16 26 989.5 989.5 0.0
29/12:30pm 15.1 7.3 2.0 41 5.8 NNW 32 48 17 26 989.4 989.4 0.0
29/12:00pm 15.5 7.5 3.9 46 5.4 NNW 35 50 19 27 989.5 989.5 0.0
29/11:30am 14.7 8.1 4.4 50 4.8 NNW 28 52 15 28 989.5 989.5 0.0
29/11:28am 15.2 8.7 4.6 49 4.9 NNW 28 52 15 28 989.4 989.4 0.0
29/11:00am 15.1 9.9 5.3 52 4.7 NNW 22 32 12 17 989.4 989.4 0.0
29/10:30am 14.9 7.8 5.7 54 4.4 NNW 32 44 17 24 989.5 989.5 0.0
29/10:00am 13.7 9.3 7.5 66 3.1 NNW 20 28 11 15 989.4 989.4 0.0
29/09:30am 13.2 7.2 7.2 67 2.9 NNW 28 41 15 22 989.3 989.3 0.0
29/09:00am 12.7 7.6 7.6 71 2.5 NNW 24 35 13 19 989.2 989.2 2.0
29/08:30am 13.8 8.9 8.6 71 2.6 NNW 24 32 13 17 988.8 988.8 2.0
29/08:00am 13.9 10.6 9.5 75 2.3 N 17 24 9 13 988.9 988.9 2.0
29/07:30am 13.7 8.6 9.2 74 2.3 N 26 33 14 18 988.6 988.6 2.0
29/07:00am 13.5 9.0 9.9 79 1.9 NNE 24 32 13 17 988.1 988.1 2.0
29/06:30am 13.6 10.3 10.8 83 1.5 NNE 19 24 10 13 988.7 988.7 2.0
29/06:00am 13.5 8.8 10.5 82 1.6 NNE 26 37 14 20 988.0 988.0 2.0
29/05:30am 13.6 8.1 10.4 81 1.7 N 30 41 16 22 988.2 988.2 2.0
29/05:00am 13.5 7.6 10.5 82 1.6 NNE 32 39 17 21 988.0 988.0 2.0
29/04:30am 13.2 7.7 10.4 83 1.5 NNE 30 44 16 24 988.3 988.3 2.0
29/04:00am 13.4 7.5 10.4 82 1.6 NNE 32 44 17 24 988.5 988.5 1.6
29/03:30am 13.3 8.1 10.3 82 1.6 NNE 28 39 15 21 989.0 989.0 1.2
29/03:00am 13.6 7.5 10.4 81 1.7 NNE 33 44 18 24 989.7 989.7 1.0
29/02:30am 14.0 6.8 9.2 73 2.4 NNE 37 50 20 27 990.5 990.5 0.4
29/02:16am 14.5 7.7 9.1 70 2.8 NNE 35 54 19 29 991.0 991.0 0.4
29/02:00am 15.3 9.2 8.3 63 3.6 NNE 30 41 16 22 991.7 991.7 0.2
29/01:30am 14.9 8.7 7.9 63 3.5 NNE 30 52 16 28 992.7 992.7 0.2
29/01:07am 16.3 9.5 7.0 54 4.6 NNE 32 50 17 27 992.8 992.8 0.2
29/01:00am 16.3 9.0 7.0 54 4.6 NNE 35 50 19 27 992.6 992.6 0.2
29/12:30am 15.9 9.8 8.2 60 3.9 NNE 30 41 16 22 993.7 993.7 0.2
29/12:01am 16.7 10.3 6.8 52 4.9 NNE 30 48 16 26 994.7 994.7 0.2
29/12:00am 16.7 9.9 6.8 52 4.9 NNE 32 48 17 26 994.7 994.7 0.2
 
Date/Time
EST
Temp
°C
App
Temp
°C
Dew
Point
°C
Rel
Hum
%
Delta-T
°C
Wind Press
QNH
hPa
Press
MSL
hPa
Rain since
9am
mm
Dir  Spd
km/h
Gust
km/h
Spd
kts
Gust
kts
28/11:30pm 16.1 11.2 6.8 54 4.6 NE 22 35 12 19 995.6 995.6 0.2
28/11:00pm 16.2 10.9 6.9 54 4.6 NE 24 39 13 21 996.6 996.6 0.2
28/10:30pm 15.9 11.6 7.1 56 4.3 NNE 19 24 10 13 997.8 997.8 0.2
28/10:00pm 15.4 11.5 6.9 57 4.2 NE 17 20 9 11 998.3 998.3 0.2
28/09:30pm 15.6 10.3 6.9 56 4.3 NE 24 30 13 16 998.8 998.8 0.2
28/09:00pm 14.7 12.4 7.5 62 3.6 NE 9 13 5 7 999.4 999.4 0.2
28/08:30pm 15.2 11.8 7.5 60 3.8 E 15 20 8 11 999.7 999.7 0.2
28/08:00pm 15.9 9.9 7.1 56 4.4 NE 28 37 15 20 999.6 999.6 0.2
28/07:30pm 15.6 11.3 7.1 57 4.2 NNE 19 26 10 14 1000.7 1000.7 0.2
28/07:00pm 15.6 12.0 6.9 56 4.3 NNE 15 22 8 12 1001.1 1001.1 0.2
28/06:30pm 16.1 11.8 7.1 55 4.5 NNE 19 24 10 13 1001.1 1001.1 0.2
28/06:00pm 16.4 12.0 7.3 55 4.6 NNE 20 32 11 17 1001.4 1001.4 0.2
28/05:30pm 16.5 11.7 7.4 55 4.5 NNE 22 32 12 17 1001.9 1001.9 0.2
28/05:00pm 16.8 11.3 7.4 54 4.7 N 26 39 14 21 1002.5 1002.5 0.2
28/04:30pm 17.2 11.4 7.8 54 4.8 NNE 28 35 15 19 1002.3 1002.3 0.2
28/04:00pm 17.8 11.6 7.8 52 5.1 N 30 39 16 21 1002.8 1002.8 0.2
28/03:30pm 17.8 11.0 7.0 49 5.4 NNE 32 39 17 21 1002.7 1002.7 0.2
28/03:00pm 18.1 11.4 7.5 50 5.4 NNE 32 39 17 21 1003.6 1003.6 0.2
28/02:30pm 18.3 12.1 7.7 50 5.4 NNE 30 39 16 21 1004.1 1004.1 0.2
28/02:02pm 18.1 12.3 8.1 52 5.1 NNE 28 50 15 27 1005.2 1005.2 0.2
28/02:00pm 18.1 12.7 8.1 52 5.1 NNE 26 37 14 20 1005.4 1005.4 0.2
28/01:30pm 18.4 13.1 8.4 52 5.2 NNE 26 33 14 18 1005.8 1005.8 0.2
28/01:00pm 18.5 12.9 8.7 53 5.1 NNE 28 37 15 20 1007.0 1007.0 0.0
28/12:30pm 17.5 11.9 7.3 51 5.1 N 26 35 14 19 1008.2 1008.2 0.0
28/12:00pm 16.6 10.7 7.3 54 4.6 N 28 39 15 21 1009.3 1009.3 0.0
28/11:30am 17.1 11.9 7.2 52 4.9 NNW 24 35 13 19 1010.1 1010.1 0.0
28/11:00am 16.7 10.7 7.1 53 4.8 N 28 39 15 21 1010.6 1010.6 0.0
28/10:30am 15.9 11.6 7.9 59 4.0 N 20 30 11 16 1011.1 1011.1 0.0
28/10:00am 15.4 11.0 7.4 59 4.0 N 20 30 11 16 1011.4 1011.4 0.0
28/09:30am 14.8 10.6 8.3 65 3.3 N 20 26 11 14 1011.7 1011.7 0.0
28/09:00am 13.7 9.4 7.7 67 3.0 N 20 28 11 15 1012.1 1012.1 0.4
28/08:30am 12.7 7.5 7.4 70 2.6 N 24 30 13 16 1012.4 1012.4 0.4
28/08:00am 12.5 8.8 7.8 73 2.3 N 17 24 9 13 1012.5 1012.5 0.4
28/07:30am 11.2 7.4 7.7 79 1.7 N 17 22 9 12 1012.7 1012.7 0.4
28/07:00am 10.0 6.5 7.4 84 1.2 N 15 20 8 11 1012.9 1012.9 0.4
28/06:30am 8.5 5.6 6.6 88 0.9 N 11 13 6 7 1012.8 1012.8 0.4
28/06:00am 8.2 5.6 6.3 88 0.9 N 9 11 5 6 1012.7 1012.7 0.4
28/05:30am 8.3 5.0 6.4 88 0.9 N 13 15 7 8 1012.4 1012.4 0.4
28/05:00am 8.5 5.2 6.6 88 0.9 N 13 15 7 8 1012.4 1012.4 0.4
28/04:30am 8.4 4.8 6.7 89 0.8 N 15 20 8 11 1012.4 1012.4 0.4
28/04:00am 8.2 4.9 6.3 88 0.9 N 13 17 7 9 1012.4 1012.4 0.4
28/03:30am 8.7 5.8 6.7 87 0.9 N 11 15 6 8 1012.5 1012.5 0.4
28/03:00am 9.0 5.5 7.0 87 0.9 NNW 15 19 8 10 1012.5 1012.5 0.4
28/02:30am 8.6 5.7 6.4 86 1.0 NW 11 13 6 7 1012.5 1012.5 0.4
28/02:00am 9.1 6.6 6.7 85 1.1 NNW 9 13 5 7 1012.4 1012.4 0.4
28/01:30am 9.1 5.9 6.9 86 1.0 N 13 17 7 9 1012.4 1012.4 0.4
28/01:00am 9.0 5.5 7.0 87 0.9 N 15 19 8 10 1012.5 1012.5 0.4
28/12:30am 9.2 5.7 7.3 88 0.9 N 15 17 8 9 1012.6 1012.6 0.4
28/12:00am 9.1 6.8 7.5 90 0.8 N 9 13 5 7 1012.5 1012.5 0.4
 
Date/Time
EST
Temp
°C
App
Temp
°C
Dew
Point
°C
Rel
Hum
%
Delta-T
°C
Wind Press
QNH
hPa
Press
MSL
hPa
Rain since
9am
mm
Dir  Spd
km/h
Gust
km/h
Spd
kts
Gust
kts
27/11:30pm 9.4 7.2 8.0 91 0.7 N 9 11 5 6 1012.6 1012.6 0.4
27/11:00pm 9.5 6.6 8.1 91 0.7 NNE 13 15 7 8 1012.7 1012.7 0.4
27/10:30pm 9.1 6.5 7.7 91 0.7 N 11 13 6 7 1012.9 1012.9 0.4
27/10:00pm 8.8 7.0 7.3 90 0.7 N 6 7 3 4 1013.0 1013.0 0.4
27/09:30pm 9.6 7.8 8.0 90 0.8 N 7 7 4 4 1013.1 1013.1 0.4
27/09:00pm 9.3 6.7 7.6 89 0.8 N 11 11 6 6 1013.3 1013.3 0.4
27/08:30pm 9.7 7.8 7.6 87 1.0 NNE 7 7 4 4 1013.3 1013.3 0.4
27/08:00pm 9.8 9.2 7.2 84 1.2 CALM 0 0 0 0 1013.2 1013.2 0.4
27/07:30pm 10.2 9.6 7.4 83 1.3 CALM 0 0 0 0 1013.3 1013.3 0.4
27/07:00pm 10.7 10.1 7.6 81 1.5 CALM 0 0 0 0 1013.2 1013.2 0.4
27/06:30pm 11.4 9.8 7.9 79 1.7 S 6 7 3 4 1013.0 1013.0 0.4
27/06:00pm 12.3 10.7 8.8 79 1.7 SSW 7 9 4 5 1012.8 1012.8 0.4
27/05:30pm 12.5 10.8 8.2 75 2.1 S 7 11 4 6 1012.6 1012.6 0.4
27/05:00pm 12.6 10.7 8.9 78 1.9 S 9 11 5 6 1012.3 1012.3 0.4
27/04:30pm 12.8 11.7 10.5 86 1.2 S 7 11 4 6 1012.1 1012.1 0.4
27/04:00pm 12.1 9.4 10.2 88 1.0 S 15 20 8 11 1012.1 1012.1 0.2
27/03:35pm 11.6 8.5 10.2 91 0.7 SSW 17 22 9 12 1012.1 1012.1 0.2
27/03:30pm 11.6 8.1 10.2 91 0.7 SW 19 28 10 15 1012.2 1012.2 0.2
27/03:04pm 11.6 7.3 9.3 86 1.2 SW 22 32 12 17 1012.2 1012.2 0.2
27/03:00pm 11.8 7.1 9.2 84 1.3 WSW 24 35 13 19 1012.1 1012.1 0.2
27/02:36pm 12.6 8.0 9.6 82 1.5 W 24 35 13 19 1011.8 1011.8 0.2
27/02:33pm 12.7 8.2 9.9 83 1.4 W 24 35 13 19 1011.9 1011.9 0.2
27/02:30pm 12.6 8.5 10.1 85 1.3 W 22 37 12 20 1011.8 1011.8 0.2
27/02:21pm 12.4 7.8 9.8 84 1.3 W 24 32 13 17 1011.8 1011.8 0.0
27/02:18pm 12.6 8.0 9.8 83 1.4 WSW 24 32 13 17 1011.8 1011.8 0.0
27/02:00pm 13.0 8.3 9.1 77 2.0 W 24 33 13 18 1011.8 1011.8 0.0
27/01:30pm 14.0 9.8 9.8 76 2.2 W 22 35 12 19 1011.8 1011.8 0.0
27/01:00pm 14.1 10.1 8.1 67 3.0 WSW 19 33 10 18 1011.6 1011.6 0.0
27/12:30pm 14.8 11.6 8.3 65 3.3 W 15 26 8 14 1011.7 1011.7 0.0
27/12:00pm 14.3 10.4 8.5 68 2.9 W 19 28 10 15 1011.7 1011.7 0.0
27/11:30am 13.8 9.5 7.8 67 3.0 WNW 20 30 11 16 1011.6 1011.6 0.0
27/11:00am 13.4 9.2 7.6 68 2.8 WNW 19 28 10 15 1011.7 1011.7 0.0
27/10:30am 12.7 8.3 7.6 71 2.5 NW 20 28 11 15 1011.9 1011.9 0.0
27/10:00am 11.5 7.1 7.2 75 2.1 WNW 20 30 11 16 1011.8 1011.8 0.0
27/09:30am 10.9 6.5 6.5 74 2.1 WNW 19 28 10 15 1011.7 1011.7 0.0
27/09:00am 11.0 6.4 6.6 74 2.1 WNW 20 30 11 16 1011.6 1011.6 9.6
27/08:30am 10.3 5.1 5.3 71 2.3 WNW 22 32 12 17 1011.3 1011.3 9.6
27/08:00am 10.0 6.6 5.8 75 1.9 NW 13 22 7 12 1011.1 1011.1 9.6
27/07:30am 9.0 5.6 5.9 81 1.4 NW 13 17 7 9 1010.8 1010.8 9.6
27/07:00am 7.9 5.2 5.4 84 1.1 NNW 9 13 5 7 1010.8 1010.8 9.6
27/06:30am 7.3 4.4 4.6 83 1.2 NNW 9 13 5 7 1010.5 1010.5 9.6
27/06:00am 7.5 5.0 4.6 82 1.3 NW 7 13 4 7 1009.9 1009.9 9.6
27/05:30am 7.9 5.0 4.7 80 1.4 NW 9 13 5 7 1009.7 1009.7 9.6
27/05:00am 8.2 4.5 4.6 78 1.6 WNW 13 20 7 11 1009.6 1009.6 9.6
27/04:30am 8.4 4.8 5.0 79 1.5 WNW 13 19 7 10 1009.5 1009.5 9.6
27/04:00am 8.7 4.8 5.3 79 1.5 WNW 15 22 8 12 1009.3 1009.3 9.6
27/03:30am 8.6 5.6 5.9 83 1.2 WNW 11 17 6 9 1009.1 1009.1 9.6
27/03:00am 8.7 5.4 6.5 86 1.0 NW 13 17 7 9 1009.1 1009.1 9.6
27/02:30am 8.8 6.0 7.1 89 0.8 NW 11 20 6 11 1009.2 1009.2 9.4
27/02:00am 8.7 5.5 7.0 89 0.8 NW 13 15 7 8 1009.4 1009.4 9.4
27/01:30am 8.5 5.3 7.0 90 0.7 NNW 13 17 7 9 1009.5 1009.5 9.2
27/01:00am 8.4 6.0 7.0 91 0.7 N 9 13 5 7 1009.6 1009.6 8.8
27/12:30am 8.4 4.9 7.0 91 0.7 N 15 20 8 11 1009.6 1009.6 8.8
27/12:00am 8.1 5.6 6.7 91 0.6 NNW 9 15 5 8 1009.9 1009.9 8.8
 
Date/Time
EST
Temp
°C
App
Temp
°C
Dew
Point
°C
Rel
Hum
%
Delta-T
°C
Wind Press
QNH
hPa
Press
MSL
hPa
Rain since
9am
mm
Dir  Spd
km/h
Gust
km/h
Spd
kts
Gust
kts
26/11:30pm 8.3 6.3 6.9 91 0.7 N 7 11 4 6 1009.8 1009.8 8.8
26/11:00pm 8.5 5.3 7.0 90 0.7 E 13 19 7 10 1009.6 1009.6 8.8
26/10:30pm 8.5 6.1 6.8 89 0.8 NE 9 13 5 7 1010.2 1010.2 8.6
26/10:29pm 8.5 6.1 6.8 89 0.8 NE 9 13 5 7 1010.2 1010.2 8.6
26/10:03pm 8.6 4.6 6.7 88 0.9 WNW 17 22 9 12 1011.1 1011.1 6.6
26/10:00pm 8.6 4.6 6.7 88 0.9 WNW 17 26 9 14 1011.2 1011.2 6.4
26/09:40pm 8.9 4.6 7.2 89 0.8 W 19 32 10 17 1011.0 1011.0 5.0
26/09:36pm 8.9 4.6 7.2 89 0.8 W 19 32 10 17 1011.0 1011.0 5.0
26/09:30pm 8.9 4.5 7.2 89 0.8 W 20 35 11 19 1011.0 1011.0 4.8
26/09:08pm 9.1 3.1 7.1 87 0.9 W 28 44 15 24 1010.9 1010.9 3.0
26/09:00pm 9.3 3.7 7.3 87 0.9 WSW 26 44 14 24 1010.7 1010.7 2.4
26/08:59pm 9.4 3.8 7.3 87 1.0 WSW 26 43 14 23 1010.7 1010.7 2.4
26/08:38pm 10.1 6.4 7.9 86 1.1 WSW 17 41 9 22 1010.3 1010.3 1.2
26/08:30pm 11.1 9.6 9.0 87 1.0 WSW 7 9 4 5 1010.1 1010.1 1.2
26/08:00pm 11.2 9.3 8.9 86 1.1 N 9 13 5 7 1009.7 1009.7 1.2
26/07:30pm 11.5 9.1 8.7 83 1.4 N 11 15 6 8 1009.9 1009.9 0.6
26/07:00pm 11.5 8.1 7.6 77 1.9 NNW 15 20 8 11 1009.7 1009.7 0.6
26/06:37pm 13.0 7.0 7.0 67 2.9 NNW 28 44 15 24 1009.3 1009.3 0.2
26/06:30pm 14.7 10.2 6.3 57 4.0 N 19 26 10 14 1008.9 1008.9 0.2
26/06:00pm 14.6 12.1 6.7 59 3.8 N 9 20 5 11 1008.7 1008.7 0.2
26/05:30pm 14.4 12.4 7.0 61 3.6 N 7 9 4 5 1008.5 1008.5 0.2
26/05:00pm 14.7 12.6 6.5 58 4.0 WNW 7 13 4 7 1008.5 1008.5 0.2

Latest Capital City Observations: Canberra | Sydney | Melbourne | Brisbane | Adelaide | Perth | Hobart | Darwin

Other Formats:

Comma delimited format used in spreadsheet applications
http://www.bom.gov.au/fwo/IDV60901/IDV60901.94870.axf

JavaScript Object Notation format (JSON) in row-major order
http://www.bom.gov.au/fwo/IDV60901/IDV60901.94870.json